Time;durP1;ratioP1;P1;durP2;ratioP2;P2;SDS_P1;SDS_P2;PMS_P1;PMS_P2;Temp;Humidity;BMP_temperature;BMP_pressure;BME280_temperature;BME280_humidity;BME280_pressure;Samples;Min_cycle;Max_cycle;Signal;HPM_P1;HPM_P2
2024/04/01 00:01:17;;;;;;;2.13;0.70;;;;;;;-144.05;71.43;56921.06;5061486;28;20461;-78
2024/04/01 00:03:43;;;;;;;1.63;0.70;;;8.60;99.90;;;-144.05;71.31;56935.91;5062184;28;20115;-79
2024/04/01 00:06:09;;;;;;;3.20;0.50;;;;;;;-144.05;71.01;56940.16;5059112;28;20028;-81
2024/04/01 00:08:35;;;;;;;1.50;0.50;;;;;;;-144.05;70.65;56942.28;5079814;28;20036;-79
2024/04/01 00:11:01;;;;;;;1.80;0.80;;;8.50;99.90;;;-144.05;70.81;56963.53;5068143;28;20082;-81
2024/04/01 00:13:28;;;;;;;0.68;0.40;;;;;;;-144.05;70.78;56929.53;5078506;28;20020;-78
2024/04/01 00:15:53;;;;;;;4.53;1.00;;;7.60;99.90;;;-144.05;70.79;56946.53;5059802;28;20024;-80
2024/04/01 00:18:19;;;;;;;1.98;0.73;;;7.90;99.90;;;-144.05;70.91;56912.56;5076587;28;20374;-79
2024/04/01 00:20:56;;;;;;;1.65;0.80;;;14.30;99.90;;;-144.05;70.68;56952.91;5077270;28;20024;-78
2024/04/01 00:23:24;;;;;;;2.08;1.10;;;7.50;99.90;;;-144.05;71.62;56925.28;5059401;28;20036;-79
2024/04/01 00:25:50;;;;;;;2.75;1.15;;;7.30;99.90;;;-144.05;72.25;56931.66;5057259;28;20489;-79
2024/04/01 00:28:16;;;;;;;4.07;1.35;;;14.50;99.90;;;-144.05;72.61;56944.41;5075235;28;20051;-80
2024/04/01 00:30:42;;;;;;;1.95;0.80;;;7.50;99.90;;;-144.05;72.47;56946.53;5077180;28;20055;-81
2024/04/01 00:33:09;;;;;;;1.55;0.88;;;7.20;99.90;;;-144.05;72.75;56963.53;5057885;28;20025;-82
2024/04/01 00:35:41;;;;;;;3.88;0.80;;;8.10;99.90;;;-144.05;72.49;56948.66;5074519;28;20107;-80
2024/04/01 00:38:08;;;;;;;1.88;1.00;;;14.30;99.90;;;-144.05;72.63;56959.28;5051222;28;20033;-80
2024/04/01 00:40:37;;;;;;;1.00;0.60;;;;;;;-144.05;72.87;56969.91;5083088;28;20028;-79
2024/04/01 00:43:12;;;;;;;1.95;0.55;;;14.50;99.90;;;-144.05;72.00;56959.28;5078072;28;20123;-81
2024/04/01 00:45:47;;;;;;;1.42;0.63;;;11.00;99.90;;;-144.05;71.68;56925.28;5066209;28;20461;-80
2024/04/01 00:48:16;;;;;;;4.30;0.60;;;;;;;-144.05;71.42;56931.66;5053019;28;20024;-80
2024/04/01 00:50:49;;;;;;;2.50;0.43;;;7.40;99.90;;;-144.05;71.03;56961.41;5074861;28;20051;-77
2024/04/01 00:53:20;;;;;;;3.20;0.70;;;7.90;99.90;;;-144.05;71.25;56940.16;5057877;28;20600;-80
2024/04/01 00:55:47;;;;;;;3.05;0.45;;;14.70;99.90;;;-144.05;70.98;56946.53;5055261;28;20034;-79
2024/04/01 00:58:15;;;;;;;1.88;0.70;;;7.70;99.90;;;-144.05;70.91;56946.53;5075231;28;20025;-79
2024/04/01 01:00:42;;;;;;;4.25;1.20;;;;;;;-144.05;71.17;56974.16;5059406;28;20025;-79
2024/04/01 01:03:09;;;;;;;2.83;0.90;;;7.90;99.90;;;-144.05;71.07;56963.53;5068896;28;20104;-80
2024/04/01 01:05:36;;;;;;;3.00;0.93;;;14.60;99.90;;;-144.05;71.53;56927.41;5075969;28;20039;-81
2024/04/01 01:08:04;;;;;;;1.65;0.70;;;;;;;-144.05;71.93;56972.03;5075216;28;20078;-80
2024/04/01 01:10:31;;;;;;;1.95;0.95;;;8.40;99.90;;;-144.05;72.65;56933.78;5056613;28;20043;-81
2024/04/01 01:12:58;;;;;;;2.00;0.85;;;14.60;99.90;;;-144.05;72.07;56942.28;5057613;28;20020;-81
2024/04/01 01:15:26;;;;;;;2.70;0.60;;;14.40;99.90;;;-144.05;71.66;56921.06;5074838;28;20401;-81
2024/04/01 01:17:54;;;;;;;2.33;0.88;;;14.60;99.90;;;-144.05;71.89;56959.28;5058084;28;20024;-81
2024/04/01 01:20:20;;;;;;;2.78;1.25;;;7.00;99.90;;;-144.05;71.47;56942.28;5056149;28;20024;-79
2024/04/01 01:22:46;;;;;;;2.13;1.02;;;7.30;99.90;;;-144.05;72.14;56931.66;5074389;28;20152;-79
2024/04/01 01:25:12;;;;;;;11.52;1.15;;;;;;;-144.05;72.07;56948.66;5053081;28;20424;-79
2024/04/01 01:27:41;;;;;;;1.75;0.77;;;7.30;99.90;;;-144.05;71.72;56929.53;5075692;28;20633;-80
2024/04/01 01:30:16;;;;;;;2.30;1.30;;;14.40;99.90;;;-144.05;72.32;56955.03;5067612;28;20099;-81
2024/04/01 01:32:52;;;;;;;4.43;0.97;;;14.40;99.90;;;-144.05;72.61;56942.28;5061186;28;20021;-77
2024/04/01 01:35:25;;;;;;;1.25;0.70;;;10.60;99.90;;;-144.05;72.43;56921.06;5078164;28;20262;-80
2024/04/01 01:37:54;;;;;;;3.15;1.23;;;7.30;99.90;;;-144.05;72.25;56946.53;5079327;28;20112;-82
2024/04/01 01:40:20;;;;;;;1.55;0.70;;;7.60;99.90;;;-144.05;71.99;56935.91;5079010;28;20055;-80
2024/04/01 01:42:48;;;;;;;2.22;0.60;;;;;;;-144.05;72.12;56948.66;5078487;28;20165;-82
2024/04/01 01:45:14;;;;;;;6.03;0.82;;;7.90;99.90;;;-144.05;72.25;56942.28;5076263;28;20040;-80
2024/04/01 01:47:40;;;;;;;2.47;0.98;;;7.70;99.90;;;-144.05;71.84;56940.16;5076640;28;20033;-82
2024/04/01 01:50:08;;;;;;;0.73;0.57;;;10.70;99.90;;;-144.05;71.52;56961.41;5060910;28;20090;-81
2024/04/01 01:52:35;;;;;;;1.95;0.50;;;;;;;-144.05;71.30;56955.03;5069346;28;20039;-81
2024/04/01 01:55:03;;;;;;;2.05;0.68;;;7.30;99.90;;;-144.05;71.21;56929.53;5075104;28;20109;-80
2024/04/01 01:57:31;;;;;;;1.05;0.60;;;;;;;-144.05;70.41;56931.66;5073954;28;20059;-81
2024/04/01 01:59:58;;;;;;;0.43;0.35;;;7.60;99.90;;;-144.05;70.05;56918.94;5055183;28;20028;-81
2024/04/01 02:02:24;;;;;;;1.20;0.68;;;7.40;99.90;;;-144.05;69.82;56942.28;5075689;28;20119;-80
2024/04/01 02:04:51;;;;;;;1.75;0.47;;;;;;;-144.05;69.62;56938.03;5078230;28;20020;-81
2024/04/01 02:07:17;;;;;;;1.00;0.30;;;14.50;99.90;;;-144.05;69.49;56959.28;5076488;28;20052;-80
2024/04/01 02:09:43;;;;;;;2.72;0.70;;;14.60;99.90;;;-144.05;69.46;56938.03;5073438;28;20029;-81
2024/04/01 02:12:09;;;;;;;0.75;0.52;;;;;;;-144.05;69.45;56942.28;5084652;28;20386;-79
2024/04/01 02:14:38;;;;;;;1.08;0.85;;;10.70;99.90;;;-144.05;69.68;56944.41;5076917;28;20399;-78
2024/04/01 02:17:07;;;;;;;2.97;0.77;;;10.70;99.90;;;-144.05;69.47;56950.78;5057928;28;20073;-81
2024/04/01 02:19:35;;;;;;;1.52;0.40;;;;;;;-144.05;69.57;56927.41;5075675;28;20036;-79
2024/04/01 02:22:01;;;;;;;1.15;0.60;;;7.50;99.90;;;-144.05;69.31;56929.53;5067595;28;20475;-81
2024/04/01 02:24:27;;;;;;;0.93;0.50;;;;;;;-144.05;69.31;56946.53;5083379;28;20107;-80
2024/04/01 02:26:54;;;;;;;1.00;0.20;;;7.50;99.90;;;-144.05;69.18;56948.66;5076224;28;20032;-79
2024/04/01 02:29:21;;;;;;;1.75;0.65;;;7.90;99.90;;;-144.05;69.55;56935.91;5076041;28;20082;-81
2024/04/01 02:31:51;;;;;;;0.43;0.30;;;14.50;99.90;;;-144.05;69.81;56940.16;5076887;28;20111;-80
2024/04/01 02:34:17;;;;;;;1.23;0.50;;;;;;;-144.05;70.02;56938.03;5076041;28;20099;-81
2024/04/01 02:36:43;;;;;;;0.38;0.30;;;14.40;99.90;;;-144.05;69.70;56959.28;5077109;28;20029;-81
2024/04/01 02:39:16;;;;;;;1.60;0.35;;;14.10;99.90;;;-144.05;69.66;56938.03;5075835;28;20052;-79
2024/04/01 02:41:47;;;;;;;0.52;0.35;;;14.30;99.90;;;-144.05;68.67;56923.19;5075395;28;20420;-79
2024/04/01 02:44:14;;;;;;;0.95;0.35;;;;;;;-144.05;68.84;56959.28;5076567;28;20029;-80
2024/04/01 02:46:42;;;;;;;2.47;0.47;;;14.40;99.90;;;-144.05;68.62;56935.91;5058305;28;20131;-80
2024/04/01 02:49:11;;;;;;;0.43;0.20;;;8.30;99.90;;;-144.05;68.59;56940.16;5068371;28;20025;-82
2024/04/01 02:51:38;;;;;;;0.98;0.47;;;14.20;99.90;;;-144.05;68.03;56955.03;5075215;28;20500;-77
2024/04/01 02:54:06;;;;;;;1.90;0.63;;;10.60;99.90;;;-144.05;68.10;56935.91;5075483;28;20074;-79
2024/04/01 02:56:33;;;;;;;0.65;0.40;;;;;;;-144.05;67.94;56961.41;5074741;28;20029;-83
2024/04/01 02:59:05;;;;;;;1.70;0.20;;;10.70;99.90;;;-144.05;67.48;56963.53;5056846;28;20020;-79
2024/04/01 03:01:31;;;;;;;0.52;0.30;;;10.70;99.90;;;-144.05;67.22;56946.53;5074449;28;20035;-81
2024/04/01 03:04:01;;;;;;;0.47;0.38;;;10.80;99.90;;;-144.05;67.29;56923.19;5056745;28;20081;-81
2024/04/01 03:06:30;;;;;;;1.50;0.32;;;8.20;99.90;;;-144.05;66.72;56950.78;5075149;28;20032;-79
2024/04/01 03:08:57;;;;;;;1.05;0.30;;;;;;;-144.05;66.40;56957.16;5074701;28;20028;-80
2024/04/01 03:11:23;;;;;;;0.82;0.50;;;;;;;-144.05;66.54;56948.66;5074659;28;20402;-81
2024/04/01 03:13:50;;;;;;;1.25;0.57;;;;;;;-144.05;65.98;56950.78;5074668;28;20032;-80
2024/04/01 03:16:18;;;;;;;1.65;0.50;;;8.90;99.90;;;-144.05;66.75;56946.53;5056068;28;20028;-80
2024/04/01 03:18:44;;;;;;;1.98;0.40;;;;;;;-144.05;66.41;56938.03;5074969;28;20045;-80
2024/04/01 03:21:10;;;;;;;2.05;0.60;;;7.60;99.90;;;-144.05;66.58;56938.03;5073732;28;20066;-81
2024/04/01 03:23:36;;;;;;;2.80;0.40;;;;;;;-144.05;65.87;56935.91;5074762;28;20028;-80
2024/04/01 03:26:02;;;;;;;0.47;0.38;;;8.50;99.90;;;-144.05;65.88;56921.06;5058983;28;20061;-83
2024/04/01 03:28:29;;;;;;;2.08;0.45;;;;;;;-144.05;66.73;56938.03;5079211;28;20055;-81
2024/04/01 03:30:55;;;;;;;2.40;0.65;;;;;;;-144.05;67.15;56925.28;5075665;28;20104;-81
2024/04/01 03:33:21;;;;;;;1.27;1.10;;;7.60;99.90;;;-144.05;67.58;56940.16;5057142;28;20021;-81
2024/04/01 03:35:54;;;;;;;1.58;0.50;;;;;;;-144.05;68.25;56957.16;5055147;28;20036;-82
2024/04/01 03:38:20;;;;;;;1.42;0.60;;;7.90;99.90;;;-144.05;69.11;56980.53;5074687;28;20509;-80
2024/04/01 03:40:45;;;;;;;2.05;0.75;;;7.40;99.90;;;-144.05;69.58;56887.06;5075329;28;20036;-82
2024/04/01 03:43:12;;;;;;;0.95;0.60;;;;;;;-144.05;70.55;56938.03;5056115;28;20048;-80
2024/04/01 03:45:37;;;;;;;2.08;1.00;;;8.00;99.90;;;-144.05;71.19;56944.41;5056408;28;20060;-79
2024/04/01 03:48:06;;;;;;;3.53;0.80;;;11.50;99.90;;;-144.05;71.87;56946.53;5056659;28;20051;-81
2024/04/01 03:50:32;;;;;;;2.03;0.70;;;;;;;-144.05;71.64;56940.16;5057006;28;20028;-80
2024/04/01 03:52:58;;;;;;;1.13;0.73;;;8.80;99.90;;;-144.05;71.75;56950.78;5075699;28;20111;-82
2024/04/01 03:55:24;;;;;;;1.05;0.65;;;8.20;99.90;;;-144.05;71.90;56942.28;5056874;28;20542;-81
2024/04/01 03:57:50;;;;;;;2.28;0.95;;;;;;;-144.05;71.84;56935.91;5074956;28;20355;-82
2024/04/01 04:00:16;;;;;;;1.58;0.75;;;8.60;99.90;;;-144.05;71.58;56948.66;5073955;28;20028;-81
2024/04/01 04:02:42;;;;;;;3.15;0.68;;;;;;;-144.05;71.85;56929.53;5057100;28;20089;-79
2024/04/01 04:05:10;;;;;;;2.95;0.98;;;10.10;99.90;;;-144.05;71.95;56948.66;5082701;28;20029;-78
2024/04/01 04:07:37;;;;;;;1.27;0.60;;;;;;;-144.05;71.92;56929.53;5057136;28;20095;-79
2024/04/01 04:10:05;;;;;;;4.32;0.88;;;7.60;99.90;;;-144.05;72.61;56925.28;5075437;28;20028;-82
2024/04/01 04:12:32;;;;;;;3.20;1.13;;;9.90;99.90;;;-144.05;72.58;56940.16;5057424;28;20029;-82
2024/04/01 04:15:03;;;;;;;3.33;0.90;;;14.10;99.90;;;-144.05;73.40;56961.41;5057704;28;20159;-83
2024/04/01 04:17:30;;;;;;;1.65;0.85;;;7.60;99.90;;;-144.05;74.12;56959.28;5074609;28;20036;-81
2024/04/01 04:19:56;;;;;;;2.72;1.20;;;;;;;-144.05;74.76;56950.78;5057030;28;20024;-83
2024/04/01 04:22:22;;;;;;;3.53;0.98;;;7.30;99.90;;;-144.05;75.10;56946.53;5075517;28;20043;-83
2024/04/01 04:24:48;;;;;;;1.42;0.68;;;;;;;-144.05;75.57;56969.91;5076022;28;20020;-83
2024/04/01 04:27:14;;;;;;;3.35;0.80;;;8.10;99.90;;;-144.05;75.77;56955.03;5058245;28;20028;-80
2024/04/01 04:29:41;;;;;;;1.77;1.05;;;;;;;-144.05;77.29;56972.03;5077692;28;20039;-84
2024/04/01 04:32:13;;;;;;;2.53;1.00;;;8.90;99.90;;;-144.05;77.13;56957.16;5052910;28;20054;-82
2024/04/01 04:34:40;;;;;;;4.32;1.45;;;7.70;99.90;;;-144.05;77.34;56965.66;5079106;28;20028;-81
2024/04/01 04:37:07;;;;;;;1.45;0.70;;;7.80;99.90;;;-144.05;77.44;56961.41;5078540;28;20135;-84
2024/04/01 04:39:35;;;;;;;2.95;0.90;;;7.70;99.90;;;-144.05;78.18;56950.78;5079071;28;20024;-81
2024/04/01 04:42:02;;;;;;;4.18;0.90;;;11.30;99.90;;;-144.05;78.16;56925.28;5055748;28;20031;-80
2024/04/01 04:44:28;;;;;;;2.72;0.93;;;10.90;99.90;;;-144.05;78.13;56952.91;5054511;28;20105;-82
2024/04/01 04:46:54;;;;;;;1.48;0.80;;;8.40;99.90;;;-144.05;78.20;56946.53;5075462;28;20081;-81
2024/04/01 04:49:20;;;;;;;1.40;0.77;;;11.20;99.90;;;-144.05;79.00;56948.66;5074634;28;20024;-83
2024/04/01 04:51:47;;;;;;;1.77;0.90;;;9.50;99.90;;;-144.05;79.49;56952.91;5073608;28;20020;-80
2024/04/01 04:54:13;;;;;;;1.50;0.47;;;8.70;99.90;;;-144.05;79.26;56916.81;5073358;28;20032;-81
2024/04/01 04:56:39;;;;;;;2.58;1.20;;;11.00;99.90;;;-144.05;79.60;56938.03;5077497;28;20041;-81
2024/04/01 04:59:05;;;;;;;1.55;0.70;;;;;;;-144.05;79.70;56965.66;5084953;28;20065;-82
2024/04/01 05:01:32;;;;;;;3.25;1.00;;;;;;;-144.05;79.33;56997.50;5058206;28;20029;-83
2024/04/01 05:03:59;;;;;;;3.53;1.20;;;7.90;99.90;;;-144.05;80.00;56963.53;5064176;28;20056;-82
2024/04/01 05:06:25;;;;;;;1.83;0.93;;;;;;;-144.05;80.15;56959.28;5072276;28;20028;-80
2024/04/01 05:08:51;;;;;;;1.40;0.73;;;;;;;-144.05;79.63;56942.28;5058315;28;20227;-80
2024/04/01 05:11:17;;;;;;;2.45;0.90;;;13.90;99.90;;;-144.05;80.12;56950.78;5065066;28;20056;-81
2024/04/01 05:13:43;;;;;;;0.95;0.80;;;;;;;-144.05;80.24;56959.28;5073897;28;20025;-80
2024/04/01 05:16:09;;;;;;;3.25;1.30;;;7.60;99.90;;;-144.05;81.10;56925.28;5064673;28;20028;-80
2024/04/01 05:18:36;;;;;;;3.65;1.50;;;;;;;-144.05;81.33;56933.78;5083135;28;20052;-80
2024/04/01 05:21:02;;;;;;;2.72;1.30;;;7.90;99.90;;;-144.05;81.89;56935.91;5068463;28;20116;-80
2024/04/01 05:23:29;;;;;;;3.83;1.40;;;;;;;-144.05;82.46;56976.28;5084448;28;20032;-81
2024/04/01 05:25:55;;;;;;;2.40;1.30;;;11.10;99.90;;;-144.05;83.07;56938.03;5085674;28;20055;-81
2024/04/01 05:28:21;;;;;;;1.40;0.82;;;7.60;99.90;;;-144.05;84.48;56959.28;5074470;28;20112;-79
2024/04/01 05:30:53;;;;;;;1.73;1.17;;;7.80;99.90;;;-144.05;85.27;56965.66;5093185;28;20024;-80
2024/04/01 05:33:23;;;;;;;3.15;0.93;;;6.90;99.90;;;-144.05;85.83;56942.28;5074656;28;20501;-81
2024/04/01 05:35:49;;;;;;;2.45;0.80;;;;;;;-144.05;86.21;56925.28;5074868;28;20050;-77
2024/04/01 05:38:16;;;;;;;1.17;0.98;;;6.60;99.90;;;-144.05;86.46;56957.16;5078646;28;20032;-78
2024/04/01 05:40:42;;;;;;;1.83;1.08;;;7.10;99.90;;;-144.05;85.97;56933.78;5096963;28;20034;-78
2024/04/01 05:43:08;;;;;;;4.78;1.50;;;7.00;99.90;;;-144.05;86.90;56972.03;5062955;28;20031;-79
2024/04/01 05:45:34;;;;;;;7.07;1.30;;;;;;;-144.05;86.96;56944.41;5096002;28;20085;-78
2024/04/01 05:48:00;;;;;;;2.40;1.05;;;7.20;99.90;;;-144.05;87.22;56946.53;5076907;28;20028;-78
2024/04/01 05:50:27;;;;;;;1.13;0.80;;;9.40;99.90;;;-144.05;86.95;56940.16;5095483;28;20024;-76
2024/04/01 05:52:53;;;;;;;3.78;1.35;;;7.10;99.90;;;-144.05;86.58;56952.91;5077063;28;20074;-79
2024/04/01 05:55:20;;;;;;;3.70;1.20;;;7.50;99.90;;;-144.05;86.50;56959.28;5095087;28;20031;-79
2024/04/01 05:57:46;;;;;;;2.90;1.60;;;8.20;99.90;;;-144.05;86.22;56955.03;5076695;28;20096;-78
2024/04/01 06:00:14;;;;;;;1.15;0.90;;;8.00;99.90;;;-144.05;86.33;56948.66;5095549;28;20035;-78
2024/04/01 06:02:40;;;;;;;3.28;1.20;;;7.50;99.90;;;-144.05;86.26;56940.16;5078133;28;20067;-77
2024/04/01 06:05:07;;;;;;;3.72;1.75;;;7.50;99.90;;;-144.05;86.40;56944.41;5094881;28;20036;-79
2024/04/01 06:07:33;;;;;;;3.22;1.02;;;;;;;-144.05;86.29;56948.66;5095430;28;20035;-76
2024/04/01 06:10:00;;;;;;;2.40;1.08;;;8.00;99.90;;;-144.05;86.32;56961.41;5076974;28;20063;-75
2024/04/01 06:12:27;;;;;;;2.20;1.10;;;8.00;99.90;;;-144.05;86.58;56921.06;5068351;28;20193;-78
2024/04/01 06:14:53;;;;;;;2.78;1.15;;;8.70;99.90;;;-144.05;86.58;56946.53;5076924;28;20126;-77
2024/04/01 06:17:20;;;;;;;3.45;1.30;;;7.60;99.90;;;-144.05;86.65;56935.91;5096199;28;20027;-79
2024/04/01 06:19:45;;;;;;;5.50;1.40;;;10.90;99.90;;;-144.05;86.72;56923.19;5097429;28;20401;-77
2024/04/01 06:22:12;;;;;;;3.80;1.58;;;;;;;-144.05;86.57;56935.91;5096176;28;20064;-77
2024/04/01 06:24:38;;;;;;;1.83;1.45;;;10.90;99.90;;;-144.05;86.76;56950.78;5089981;28;20136;-78
2024/04/01 06:27:06;;;;;;;4.20;2.03;;;7.50;99.90;;;-144.05;86.91;56925.28;5095151;28;20056;-78
2024/04/01 06:29:34;;;;;;;3.78;2.00;;;7.30;99.90;;;-144.05;87.48;56933.78;5077874;28;20057;-80
2024/04/01 06:32:00;;;;;;;7.15;2.15;;;7.30;99.90;;;-144.05;88.15;56940.16;5095419;28;20024;-81
2024/04/01 06:34:26;;;;;;;3.78;1.90;;;14.10;99.90;;;-144.05;88.45;56950.78;5096836;28;20050;-81
2024/04/01 06:36:51;;;;;;;3.65;1.75;;;13.90;99.90;;;-144.05;88.67;56959.28;5078138;28;20028;-80
2024/04/01 06:39:18;;;;;;;4.75;1.90;;;;;;;-144.05;88.48;56942.28;5079294;28;20032;-78
2024/04/01 06:41:44;;;;;;;5.40;1.50;;;7.30;99.90;;;-144.05;88.72;56950.78;5097328;28;20066;-79
2024/04/01 06:44:10;;;;;;;4.53;1.77;;;;;;;-144.05;88.88;56925.28;5096615;28;20032;-80
2024/04/01 06:46:37;;;;;;;2.80;1.60;;;7.20;99.90;;;-144.05;88.56;56955.03;5078019;28;20027;-80
2024/04/01 06:49:04;;;;;;;3.85;1.13;;;7.30;99.90;;;-144.05;88.55;56957.16;5076045;28;20025;-80
2024/04/01 06:51:31;;;;;;;3.72;2.00;;;8.10;99.90;;;-144.05;88.86;56927.41;5097227;28;20433;-81
2024/04/01 06:53:58;;;;;;;2.65;1.40;;;10.90;99.90;;;-144.05;88.70;56950.78;5077711;28;20130;-79
2024/04/01 06:56:24;;;;;;;3.30;1.63;;;9.50;99.90;;;-144.05;89.01;56938.03;5079455;28;20032;-83
2024/04/01 06:58:50;;;;;;;2.15;1.10;;;7.40;99.90;;;-144.05;88.90;56963.53;5095804;28;20028;-78
2024/04/01 07:01:16;;;;;;;3.03;1.20;;;;;;;-144.05;88.99;56944.41;5096710;28;20111;-78
2024/04/01 07:03:42;;;;;;;1.92;1.05;;;8.60;99.90;;;-144.05;89.19;56950.78;5077941;28;20032;-79
2024/04/01 07:06:08;;;;;;;4.20;1.20;;;7.70;99.90;;;-144.05;89.12;56944.41;5096028;28;20024;-79
2024/04/01 07:08:34;;;;;;;2.47;1.27;;;7.90;99.90;;;-144.05;89.16;56940.16;5079533;28;20496;-78
2024/04/01 07:11:00;;;;;;;2.90;1.15;;;;;;;-144.05;89.30;56950.78;5095236;28;20166;-79
2024/04/01 07:13:26;;;;;;;1.77;1.30;;;13.80;99.90;;;-144.05;89.16;56944.41;5095907;28;20028;-78
2024/04/01 07:15:53;;;;;;;2.33;1.13;;;8.30;99.90;;;-144.05;88.98;56948.66;5095666;28;20103;-78
2024/04/01 07:18:19;;;;;;;3.00;1.27;;;8.10;99.90;;;-144.05;89.05;56925.28;5095508;28;20051;-80
2024/04/01 07:20:45;;;;;;;9.55;4.15;;;8.10;99.90;;;-144.05;89.42;56942.28;5094628;28;20031;-77
2024/04/01 07:23:11;;;;;;;10.10;4.53;;;8.60;99.90;;;-144.05;89.07;56940.16;5094134;28;20080;-81
2024/04/01 07:25:37;;;;;;;7.72;3.60;;;8.00;99.90;;;-144.05;89.25;56921.06;5068770;28;20122;-79
2024/04/01 07:28:03;;;;;;;9.50;4.25;;;8.00;99.90;;;-144.05;89.68;56921.06;5093727;28;20113;-79
2024/04/01 07:30:29;;;;;;;11.63;3.88;;;7.90;99.90;;;-144.05;89.44;56931.66;5077683;28;20035;-79
2024/04/01 07:32:55;;;;;;;10.15;5.22;;;14.40;99.90;;;-144.05;90.79;56931.66;5093591;28;20430;-77
2024/04/01 07:35:21;;;;;;;16.02;6.07;;;;;;;-144.05;91.50;56967.78;5094493;28;20584;-78
2024/04/01 07:37:47;;;;;;;16.77;7.57;;;8.00;99.90;;;-144.05;91.40;56923.19;5067953;28;20370;-81
2024/04/01 07:40:13;;;;;;;10.65;5.90;;;;;;;-144.05;89.83;56942.28;5086841;28;20027;-76
2024/04/01 07:42:45;;;;;;;10.02;5.78;;;13.70;99.90;;;-144.05;89.57;56942.28;5094277;28;20028;-76
2024/04/01 07:45:12;;;;;;;10.95;5.80;;;;;;;-144.05;89.34;56929.53;5109033;28;20012;-77
2024/04/01 07:47:38;;;;;;;11.65;5.40;;;8.60;99.90;;;-144.05;89.51;56963.53;5098631;28;20028;-80
2024/04/01 07:50:06;;;;;;;9.07;4.32;;;14.10;99.90;;;-144.05;89.31;56927.41;5073203;28;20043;-79
2024/04/01 07:52:33;;;;;;;8.98;4.13;;;;;;;-144.05;88.63;56931.66;5075389;28;20035;-78
2024/04/01 07:54:59;;;;;;;6.03;3.55;;;14.10;99.90;;;-144.05;88.30;56955.03;5093122;28;20086;-78
2024/04/01 07:57:30;;;;;;;8.25;2.90;;;7.60;99.90;;;-144.05;88.23;56944.41;5071273;28;20033;-78
2024/04/01 07:59:57;;;;;;;5.78;2.40;;;8.20;99.90;;;-144.05;88.24;56944.41;5071678;28;20177;-78
2024/04/01 08:02:24;;;;;;;6.32;2.13;;;8.70;99.90;;;-144.05;87.64;56916.81;5086480;28;20082;-76
2024/04/01 08:04:50;;;;;;;2.53;1.50;;;8.70;99.90;;;-144.05;87.44;56921.06;5066785;28;20052;-77
2024/04/01 08:07:16;;;;;;;4.95;2.45;;;8.50;99.90;;;-144.05;86.95;56955.03;5094182;28;20020;-79
2024/04/01 08:09:43;;;;;;;3.53;1.50;;;;;;;-144.05;86.99;56967.78;5093062;28;20122;-78
2024/04/01 08:12:09;;;;;;;3.03;1.45;;;8.00;99.90;;;-144.05;86.90;56929.53;5073337;28;20035;-79
2024/04/01 08:14:36;;;;;;;5.57;1.80;;;;;;;-144.05;87.02;56950.78;5093681;28;20031;-81
2024/04/01 08:17:03;;;;;;;5.22;1.30;;;7.80;99.90;;;-144.05;86.27;56933.78;5092989;28;20036;-79
2024/04/01 08:19:29;;;;;;;4.45;1.33;;;8.60;99.90;;;-144.05;86.57;56940.16;5097712;28;20122;-79
2024/04/01 08:21:56;;;;;;;5.07;1.90;;;14.60;99.90;;;-144.05;86.85;56946.53;5079853;28;20559;-82
2024/04/01 08:24:22;;;;;;;3.83;1.38;;;;;;;-144.05;86.41;56925.28;5089596;28;20461;-80
2024/04/01 08:26:50;;;;;;;3.00;1.73;;;14.50;99.90;;;-144.05;86.70;56938.03;5089342;28;20028;-79
2024/04/01 08:29:16;;;;;;;4.45;1.17;;;;;;;-144.05;85.53;56929.53;5067633;28;20028;-79
2024/04/01 08:31:42;;;;;;;1.75;1.45;;;8.10;99.90;;;-144.05;85.34;56935.91;5092116;28;20023;-79
2024/04/01 08:34:09;;;;;;;2.08;1.30;;;8.80;99.90;;;-144.05;85.72;56938.03;5085259;28;20111;-80
2024/04/01 08:36:36;;;;;;;2.65;1.60;;;14.40;99.90;;;-144.05;84.92;56938.03;5093039;28;20024;-80
2024/04/01 08:39:03;;;;;;;3.70;1.40;;;14.30;99.90;;;-144.05;84.86;56946.53;5073824;28;20028;-78
2024/04/01 08:41:43;;;;;;;4.65;1.60;;;8.90;99.90;;;-144.05;84.20;56963.53;5074600;28;20031;-80
2024/04/01 08:44:15;;;;;;;2.67;1.10;;;7.90;99.90;;;-144.05;84.49;56927.41;5090740;28;20039;-78
2024/04/01 08:46:49;;;;;;;5.00;1.48;;;10.80;99.90;;;-144.05;84.25;56938.03;5093203;28;20020;-80
2024/04/01 08:49:21;;;;;;;2.03;1.30;;;;;;;-144.05;84.05;56938.03;5092611;28;20023;-79
2024/04/01 08:51:53;;;;;;;2.13;0.98;;;10.70;99.90;;;-144.05;85.19;56955.03;5074129;28;20396;-79
2024/04/01 08:54:20;;;;;;;4.30;2.17;;;13.90;99.90;;;-144.05;85.18;56938.03;5080332;28;20031;-80
2024/04/01 08:56:46;;;;;;;4.47;2.58;;;13.90;99.90;;;-144.05;84.76;56929.53;5092765;28;20508;-80
2024/04/01 08:59:11;;;;;;;3.05;1.38;;;8.30;99.90;;;-144.05;85.14;56946.53;5090033;28;20040;-80
2024/04/01 09:01:37;;;;;;;3.60;2.00;;;9.60;99.90;;;-144.05;85.17;56938.03;5089401;28;20020;-79
2024/04/01 09:04:03;;;;;;;3.75;1.80;;;7.50;99.90;;;-144.05;84.97;56955.03;5090764;28;20029;-78
2024/04/01 09:06:30;;;;;;;4.75;1.67;;;;;;;-144.05;85.31;56929.53;5092941;28;20024;-79
2024/04/01 09:08:56;;;;;;;4.15;1.90;;;7.90;99.90;;;-144.05;84.79;56944.41;5084494;28;20164;-79
2024/04/01 09:11:25;;;;;;;4.80;2.45;;;10.90;99.90;;;-144.05;84.76;56918.94;5093011;28;20031;-81
2024/04/01 09:13:52;;;;;;;2.78;1.92;;;;;;;-144.05;84.57;56931.66;5094721;28;20059;-80
2024/04/01 09:16:27;;;;;;;4.15;1.60;;;14.10;99.90;;;-144.05;84.67;56959.28;5064869;28;20020;-82
2024/04/01 09:19:01;;;;;;;4.13;1.90;;;8.10;99.90;;;-144.05;85.36;56923.19;5095340;28;20024;-77
2024/04/01 09:21:26;;;;;;;2.80;1.88;;;7.20;99.90;;;-144.05;84.92;56916.81;5077406;28;20044;-79
2024/04/01 09:23:53;;;;;;;3.42;2.20;;;9.00;99.90;;;-144.05;84.51;56942.28;5094320;28;20393;-78
2024/04/01 09:26:19;;;;;;;3.63;2.13;;;;;;;-144.05;84.87;56927.41;5082268;28;20055;-80
2024/04/01 09:28:46;;;;;;;3.05;1.95;;;;;;;-144.05;84.39;56929.53;5094636;28;20097;-79
2024/04/01 09:31:13;;;;;;;3.30;2.38;;;7.80;99.90;;;-144.05;85.14;56952.91;5094170;28;20097;-79
2024/04/01 09:33:39;;;;;;;4.15;2.92;;;7.80;99.90;;;-144.05;84.87;56944.41;5094708;28;20413;-77
2024/04/01 09:36:07;;;;;;;6.93;4.65;;;14.10;99.90;;;-144.05;86.24;56938.03;5074666;28;20175;-78
2024/04/01 09:38:34;;;;;;;7.47;3.90;;;10.90;99.90;;;-144.05;87.52;56933.78;5094845;28;20023;-78
2024/04/01 09:41:01;;;;;;;3.78;2.92;;;14.30;99.90;;;-144.05;86.81;56942.28;5093400;28;20450;-80
2024/04/01 09:43:31;;;;;;;5.95;3.70;;;10.60;99.90;;;-144.05;87.10;56933.78;5095162;28;20110;-79
2024/04/01 09:45:59;;;;;;;4.35;3.63;;;10.50;99.90;;;-144.05;87.31;56965.66;5092559;28;20050;-81
2024/04/01 09:48:28;;;;;;;6.78;4.70;;;7.50;99.90;;;-144.05;88.15;56972.03;5093648;28;20123;-81
2024/04/01 09:50:57;;;;;;;7.00;5.55;;;10.30;99.90;;;-144.05;88.56;56946.53;5092770;28;20076;-77
2024/04/01 09:53:27;;;;;;;5.88;4.60;;;7.80;99.90;;;-144.05;88.68;56931.66;5080019;28;20028;-79
2024/04/01 09:56:24;;;;;;;7.85;3.90;;;;;;;-144.05;89.37;56946.53;5093367;28;20031;-81
2024/04/01 09:59:20;;;;;;;7.45;5.13;;;7.60;99.90;;;-144.05;90.73;56948.66;5072095;28;20064;-78
2024/04/01 10:02:41;;;;;;;9.45;5.43;;;7.70;99.90;;;-144.05;90.19;56955.03;5091461;28;20024;-77
2024/04/01 10:06:18;;;;;;;7.95;6.07;;;10.20;99.90;;;-144.05;89.82;56935.91;5088046;28;20490;-79
2024/04/01 10:10:02;;;;;;;9.07;6.57;;;6.90;99.90;;;-144.05;89.45;56950.78;5089177;28;20052;-79
2024/04/01 10:13:40;;;;;;;9.65;6.95;;;14.30;99.90;;;-144.05;88.63;56923.19;5066642;28;20065;-81
2024/04/01 10:16:46;;;;;;;10.05;7.55;;;10.40;99.90;;;-144.05;88.97;56946.53;5074674;28;20029;-79
2024/04/01 10:19:51;;;;;;;10.95;7.60;;;9.00;99.90;;;-144.05;88.05;56950.78;5092642;28;20071;-80
2024/04/01 10:23:12;;;;;;;9.57;7.18;;;8.70;99.90;;;-144.05;88.45;56955.03;5091160;28;20142;-79
2024/04/01 10:26:41;;;;;;;13.23;8.38;;;7.10;99.90;;;-144.05;88.90;56931.66;5063312;28;20051;-80
2024/04/01 10:30:06;;;;;;;15.60;8.73;;;7.50;99.90;;;-144.05;88.78;56933.78;5091877;28;20035;-78
2024/04/01 10:33:20;;;;;;;10.88;7.68;;;8.30;99.90;;;-144.05;90.01;56955.03;5099140;28;20258;-79
2024/04/01 10:36:15;;;;;;;11.52;8.75;;;7.60;99.90;;;-144.05;89.94;56944.41;5069369;28;20043;-80